North Oaks, Minnesota
Current Conditions -  °F | °C
As of 11:54 PM on Thursday 30 Oct 2014 (Local Time) from KANE Reporting Station
Clear Clear  
Wind Chill: 24°   Ceiling: Unl
Heat Index: 34°   Visibility: 10mi
Dew Point: 16°   Wind: 15mph
Humidity: 48%   Direction: 340°NNW
Pressure: 30.37"   Gusts: 24mph
Location:  45.0841°N, 93.0819°W
Report Text: KANE 310454Z AUTO 34013G21KT 10SM CLR 01/M09 A3037 RMK AO2
Loading
Personal Weather Stations






























Interactive Weather Map
Tropical Storm Tracking
New forecast layout! Learn more

10-Day Weather Forecast

Advertisements
Track Severe Weather on mobile